createdAt,value
2023-04-30T00:00:28.266Z,15.56
2023-04-30T00:02:55.515Z,15.42
2023-04-30T00:05:22.074Z,15.34
2023-04-30T00:07:48.775Z,15.25
2023-04-30T00:10:17.802Z,15.14
2023-04-30T00:12:44.417Z,15.04
2023-04-30T00:15:11.727Z,14.99
2023-04-30T00:17:38.369Z,14.95
2023-04-30T00:20:05.375Z,14.79
2023-04-30T00:22:33.392Z,14.69
2023-04-30T00:24:59.990Z,14.60
2023-04-30T00:27:29.070Z,14.54
2023-04-30T00:29:57.996Z,14.46
2023-04-30T00:32:24.681Z,14.38
2023-04-30T00:34:51.436Z,14.32
2023-04-30T00:37:18.008Z,14.33
2023-04-30T00:39:44.915Z,14.25
2023-04-30T00:42:11.455Z,14.12
2023-04-30T00:44:38.048Z,13.99
2023-04-30T00:47:04.856Z,13.97
2023-04-30T00:49:33.789Z,14.02
2023-04-30T00:52:03.376Z,14.05
2023-04-30T00:54:29.989Z,14.10
2023-04-30T00:56:56.694Z,14.13
2023-04-30T00:59:25.810Z,14.08
2023-04-30T01:01:54.982Z,14.03
2023-04-30T01:04:21.659Z,13.93
2023-04-30T01:06:53.247Z,13.95
2023-04-30T01:09:22.277Z,13.98
2023-04-30T01:12:09.968Z,13.97
2023-04-30T01:14:43.888Z,13.99
2023-04-30T01:17:17.596Z,13.98
2023-04-30T01:19:44.515Z,14.03
2023-04-30T01:22:21.650Z,14.08
2023-04-30T01:25:09.308Z,14.01
2023-04-30T01:27:50.740Z,14.01
2023-04-30T01:30:20.271Z,14.04
2023-04-30T01:32:46.923Z,14.09
2023-04-30T01:35:13.707Z,14.15
2023-04-30T01:37:47.462Z,14.17
2023-04-30T01:40:19.584Z,14.14
2023-04-30T01:42:49.322Z,14.13
2023-04-30T01:45:21.584Z,14.08
2023-04-30T01:47:58.288Z,13.98
2023-04-30T01:50:25.003Z,14.00
2023-04-30T01:52:57.574Z,14.09
2023-04-30T01:55:24.209Z,14.07
2023-04-30T01:58:00.597Z,14.08
2023-04-30T02:00:30.916Z,14.00
2023-04-30T02:03:02.961Z,13.97
2023-04-30T02:05:30.121Z,14.02
2023-04-30T02:07:56.740Z,14.05
2023-04-30T02:10:24.343Z,14.11
2023-04-30T02:12:54.232Z,14.16
2023-04-30T02:15:20.996Z,14.17
2023-04-30T02:17:49.956Z,14.18
2023-04-30T02:20:16.775Z,14.12
2023-04-30T02:22:43.789Z,13.93
2023-04-30T02:25:12.538Z,13.86
2023-04-30T02:27:39.296Z,13.86
2023-04-30T02:30:06.492Z,13.80
2023-04-30T02:32:33.319Z,13.77
2023-04-30T02:35:00.208Z,13.72
2023-04-30T02:37:26.877Z,13.64
2023-04-30T02:39:53.553Z,13.62
2023-04-30T02:42:23.021Z,13.56
2023-04-30T02:44:49.670Z,13.51
2023-04-30T02:47:16.317Z,13.44
2023-04-30T02:49:45.486Z,13.42
2023-04-30T02:52:12.240Z,13.37
2023-04-30T02:54:38.862Z,13.45
2023-04-30T02:57:08.574Z,13.51
2023-04-30T02:59:35.144Z,13.53
2023-04-30T03:02:04.119Z,13.37
2023-04-30T03:04:30.736Z,13.35
2023-04-30T03:06:57.343Z,13.42
2023-04-30T03:09:23.924Z,13.45
2023-04-30T03:11:50.513Z,13.35
2023-04-30T03:14:19.940Z,13.36
2023-04-30T03:16:49.426Z,13.39
2023-04-30T03:19:16.117Z,13.40
2023-04-30T03:21:42.730Z,13.36
2023-04-30T03:24:09.786Z,13.34
2023-04-30T03:26:36.491Z,13.44
2023-04-30T03:29:03.325Z,13.44
2023-04-30T03:31:29.961Z,13.42
2023-04-30T03:33:56.599Z,13.40
2023-04-30T03:36:28.529Z,13.44
2023-04-30T03:38:55.264Z,13.43
2023-04-30T03:41:24.645Z,13.42
2023-04-30T03:43:51.331Z,13.38
2023-04-30T03:46:18.024Z,13.44
2023-04-30T03:48:48.222Z,13.48
2023-04-30T03:51:17.764Z,13.49
2023-04-30T03:53:46.788Z,13.49
2023-04-30T03:56:15.848Z,13.51
2023-04-30T03:58:42.488Z,13.49
2023-04-30T04:01:11.472Z,13.49
2023-04-30T04:03:38.368Z,13.61
2023-04-30T04:06:08.377Z,13.58
2023-04-30T04:08:35.183Z,13.55
2023-04-30T04:11:02.237Z,13.52
2023-04-30T04:13:31.427Z,13.53
2023-04-30T04:15:58.840Z,13.51
2023-04-30T04:18:25.762Z,13.52
2023-04-30T04:20:52.536Z,13.42
2023-04-30T04:23:20.254Z,13.37
2023-04-30T04:25:49.617Z,13.41
2023-04-30T04:28:17.213Z,13.56
2023-04-30T04:30:44.010Z,13.60
2023-04-30T04:33:11.934Z,13.45
2023-04-30T04:35:38.836Z,13.35
2023-04-30T04:38:05.879Z,13.26
2023-04-30T04:40:35.513Z,13.16
2023-04-30T04:43:02.386Z,13.09
2023-04-30T04:45:29.589Z,12.98
2023-04-30T04:48:01.482Z,12.90
2023-04-30T04:50:33.543Z,12.90
2023-04-30T04:53:00.218Z,12.91
2023-04-30T04:55:29.364Z,12.92
2023-04-30T04:57:58.992Z,12.97
2023-04-30T05:00:34.020Z,12.99
2023-04-30T05:03:01.036Z,13.07
2023-04-30T05:05:27.741Z,13.08
2023-04-30T05:07:56.986Z,13.14
2023-04-30T05:10:23.612Z,12.92
2023-04-30T05:12:51.424Z,12.91
2023-04-30T05:15:20.910Z,12.88
2023-04-30T05:17:47.523Z,12.85
2023-04-30T05:20:14.200Z,12.90
2023-04-30T05:22:40.862Z,12.98
2023-04-30T05:25:07.716Z,13.04
2023-04-30T05:27:34.392Z,13.16
2023-04-30T05:30:03.445Z,13.27
2023-04-30T05:32:30.272Z,13.25
2023-04-30T05:34:59.328Z,13.21
2023-04-30T05:37:25.919Z,13.31
2023-04-30T05:39:54.180Z,13.38
2023-04-30T05:42:21.138Z,13.48
2023-04-30T05:44:51.018Z,13.52
2023-04-30T05:47:17.801Z,13.49
2023-04-30T05:49:44.453Z,13.44
2023-04-30T05:52:15.385Z,13.47
2023-04-30T05:54:42.123Z,13.38
2023-04-30T05:57:11.366Z,13.47
2023-04-30T05:59:37.991Z,13.41
2023-04-30T06:02:04.726Z,13.48
2023-04-30T06:04:33.887Z,13.56
2023-04-30T06:07:00.786Z,13.74
2023-04-30T06:09:27.423Z,13.96
2023-04-30T06:11:55.838Z,13.99
2023-04-30T06:14:25.461Z,14.01
2023-04-30T06:16:54.268Z,13.89
2023-04-30T06:19:23.383Z,13.88
2023-04-30T06:21:55.378Z,13.98
2023-04-30T06:24:22.063Z,13.95
2023-04-30T06:26:48.641Z,14.04
2023-04-30T06:29:15.350Z,14.13
2023-04-30T06:31:42.036Z,14.22
2023-04-30T06:34:08.998Z,14.26
2023-04-30T06:36:38.524Z,14.32
2023-04-30T06:39:05.387Z,14.37
2023-04-30T06:41:34.471Z,14.42
2023-04-30T06:44:06.434Z,14.43
2023-04-30T06:46:34.719Z,14.48
2023-04-30T06:49:01.494Z,14.51
2023-04-30T06:51:28.138Z,14.55
2023-04-30T06:53:54.705Z,14.70
2023-04-30T06:56:25.082Z,14.78
2023-04-30T06:58:51.723Z,14.88
2023-04-30T07:01:18.751Z,15.02
2023-04-30T07:03:51.676Z,15.06
2023-04-30T07:06:18.467Z,15.11
2023-04-30T07:08:49.798Z,15.10
2023-04-30T07:11:16.964Z,15.13
2023-04-30T07:13:46.098Z,15.22
2023-04-30T07:16:12.824Z,15.05
2023-04-30T07:18:42.273Z,15.04
2023-04-30T07:21:11.232Z,15.18
2023-04-30T07:23:37.820Z,15.21
2023-04-30T07:26:06.897Z,15.25
2023-04-30T07:28:33.487Z,15.24
2023-04-30T07:31:00.822Z,15.25
2023-04-30T07:33:27.500Z,15.31
2023-04-30T07:35:56.058Z,15.40
2023-04-30T07:38:22.729Z,15.48
2023-04-30T07:40:49.268Z,15.53
2023-04-30T07:43:15.966Z,15.44
2023-04-30T07:45:45.200Z,15.38
2023-04-30T07:48:11.868Z,15.40
2023-04-30T07:50:39.086Z,15.54
2023-04-30T07:53:09.904Z,15.71
2023-04-30T07:55:36.593Z,15.83
2023-04-30T07:58:03.986Z,15.90
2023-04-30T08:00:33.143Z,16.10
2023-04-30T08:03:02.322Z,16.12
2023-04-30T08:05:29.071Z,16.15
2023-04-30T08:07:55.937Z,16.06
2023-04-30T08:10:27.389Z,16.05
2023-04-30T08:12:56.259Z,16.17
2023-04-30T08:15:23.007Z,16.29
2023-04-30T08:17:52.986Z,16.34
2023-04-30T08:20:23.698Z,16.29
2023-04-30T08:22:51.205Z,16.39
2023-04-30T08:25:17.802Z,16.58
2023-04-30T08:27:44.396Z,16.81
2023-04-30T08:30:13.482Z,17.08
2023-04-30T08:32:42.821Z,17.10
2023-04-30T08:35:11.853Z,17.17
2023-04-30T08:37:41.329Z,17.22
2023-04-30T08:40:09.795Z,17.15
2023-04-30T08:42:37.730Z,17.44
2023-04-30T08:45:07.036Z,17.82
2023-04-30T08:47:33.611Z,18.18
2023-04-30T08:50:00.402Z,18.22
2023-04-30T08:52:29.344Z,18.03
2023-04-30T08:54:56.002Z,18.41
2023-04-30T08:57:25.663Z,18.73
2023-04-30T08:59:52.386Z,18.78
2023-04-30T09:02:22.038Z,18.91
2023-04-30T09:04:49.062Z,18.87
2023-04-30T09:07:18.793Z,18.72
2023-04-30T09:09:47.744Z,18.64
2023-04-30T09:12:19.261Z,18.81
2023-04-30T09:15:13.633Z,18.96
2023-04-30T09:17:42.787Z,19.57
2023-04-30T09:20:10.234Z,19.87
2023-04-30T09:22:39.692Z,20.08
2023-04-30T09:25:09.649Z,19.89
2023-04-30T09:27:44.597Z,20.10
2023-04-30T09:30:15.640Z,20.24
2023-04-30T09:32:54.648Z,20.33
2023-04-30T09:35:29.796Z,20.65
2023-04-30T09:37:56.516Z,20.78
2023-04-30T09:40:33.173Z,20.76
2023-04-30T09:43:02.405Z,21.27
2023-04-30T09:45:47.509Z,21.67
2023-04-30T09:48:18.141Z,22.00
2023-04-30T09:50:52.384Z,22.08
2023-04-30T09:53:21.767Z,22.17
2023-04-30T09:55:49.260Z,22.45
2023-04-30T09:58:19.322Z,22.51
2023-04-30T10:00:46.486Z,22.13
2023-04-30T10:03:13.589Z,22.17
2023-04-30T10:05:47.622Z,21.92
2023-04-30T10:08:35.693Z,21.21
2023-04-30T10:11:06.196Z,20.37
2023-04-30T10:13:41.351Z,19.99
2023-04-30T10:16:21.270Z,20.34
2023-04-30T10:18:49.158Z,20.83
2023-04-30T10:21:16.421Z,21.40
2023-04-30T10:23:43.847Z,21.85
2023-04-30T10:26:12.474Z,21.84
2023-04-30T10:28:40.759Z,21.95
2023-04-30T10:31:10.782Z,21.66
2023-04-30T10:33:58.708Z,21.17
2023-04-30T10:36:42.526Z,21.10
2023-04-30T10:39:12.830Z,21.02
2023-04-30T10:41:39.535Z,20.87
2023-04-30T10:44:07.071Z,20.47
2023-04-30T10:46:39.388Z,20.45
2023-04-30T10:49:08.928Z,20.16
2023-04-30T10:51:45.406Z,20.45
2023-04-30T10:54:12.361Z,20.77
2023-04-30T10:56:41.563Z,21.11
2023-04-30T10:59:12.441Z,21.32
2023-04-30T11:01:54.914Z,21.81
2023-04-30T11:04:21.680Z,22.20
2023-04-30T11:07:10.228Z,22.65
2023-04-30T11:09:37.653Z,23.19
2023-04-30T11:12:05.055Z,23.61
2023-04-30T11:14:35.126Z,23.70
2023-04-30T11:17:05.085Z,23.09
2023-04-30T11:19:31.939Z,23.19
2023-04-30T11:22:04.964Z,23.48
2023-04-30T11:24:50.989Z,24.00
2023-04-30T11:27:24.495Z,24.27
2023-04-30T11:29:54.133Z,24.35
2023-04-30T11:32:21.340Z,24.96
2023-04-30T11:34:48.662Z,24.49
2023-04-30T11:37:23.554Z,24.02
2023-04-30T11:39:50.152Z,24.76
2023-04-30T11:42:18.052Z,24.59
2023-04-30T11:44:45.353Z,24.57
2023-04-30T11:47:17.394Z,24.31
2023-04-30T11:49:46.981Z,25.02
2023-04-30T11:52:13.628Z,24.60
2023-04-30T11:54:42.596Z,25.08
2023-04-30T11:57:11.524Z,24.79
2023-04-30T11:59:42.276Z,24.31
2023-04-30T12:02:10.006Z,24.29
2023-04-30T12:04:38.562Z,24.43
2023-04-30T12:07:07.685Z,24.30
2023-04-30T12:09:56.378Z,24.17
2023-04-30T12:12:30.033Z,24.68
2023-04-30T12:15:01.491Z,25.57
2023-04-30T12:17:33.903Z,26.32
2023-04-30T12:20:03.160Z,26.44
2023-04-30T12:22:29.752Z,26.09
2023-04-30T12:24:56.963Z,26.15
2023-04-30T12:27:23.795Z,26.32
2023-04-30T12:29:51.147Z,26.17
2023-04-30T12:32:19.405Z,26.47
2023-04-30T12:34:46.756Z,27.69
2023-04-30T12:37:16.648Z,28.54
2023-04-30T12:39:43.435Z,28.27
2023-04-30T12:42:10.348Z,28.58
2023-04-30T12:44:44.600Z,29.00
2023-04-30T12:47:11.289Z,30.06
2023-04-30T12:49:37.902Z,29.16
2023-04-30T12:52:09.580Z,29.51
2023-04-30T12:54:36.884Z,28.61
2023-04-30T12:57:07.490Z,28.31
2023-04-30T12:59:35.027Z,27.35
2023-04-30T13:02:08.712Z,27.12
2023-04-30T13:04:36.186Z,28.41
2023-04-30T13:07:05.856Z,30.07
2023-04-30T13:09:36.022Z,31.62
2023-04-30T13:12:03.302Z,31.84
2023-04-30T13:14:31.074Z,29.28
2023-04-30T13:17:05.073Z,27.59
2023-04-30T13:19:35.324Z,27.97
2023-04-30T13:22:02.270Z,29.24
2023-04-30T13:24:31.379Z,31.45
2023-04-30T13:27:00.640Z,32.48
2023-04-30T13:29:27.603Z,32.65
2023-04-30T13:31:56.687Z,33.38
2023-04-30T13:34:23.556Z,34.02
2023-04-30T13:36:50.323Z,33.78
2023-04-30T13:39:17.333Z,32.05
2023-04-30T13:41:48.024Z,31.26
2023-04-30T13:44:14.667Z,29.76
2023-04-30T13:46:41.726Z,28.26
2023-04-30T13:49:13.257Z,27.11
2023-04-30T13:51:40.172Z,26.56
2023-04-30T13:54:09.257Z,25.99
2023-04-30T13:56:35.890Z,25.98
2023-04-30T13:59:04.912Z,27.27
2023-04-30T14:01:33.052Z,27.82
2023-04-30T14:03:59.863Z,28.96
2023-04-30T14:06:26.512Z,30.28
2023-04-30T14:08:53.563Z,32.22
2023-04-30T14:11:20.930Z,33.59
2023-04-30T14:13:50.106Z,34.01
2023-04-30T14:16:17.206Z,34.66
2023-04-30T14:18:44.289Z,34.13
2023-04-30T14:21:13.972Z,33.10
2023-04-30T14:23:41.296Z,31.77
2023-04-30T14:26:07.873Z,31.65
2023-04-30T14:28:34.821Z,33.17
2023-04-30T14:31:06.430Z,33.50
2023-04-30T14:33:36.071Z,33.22
2023-04-30T14:36:02.977Z,31.20
2023-04-30T14:38:29.609Z,30.03
2023-04-30T14:40:59.412Z,28.21
2023-04-30T14:43:31.110Z,26.24
2023-04-30T14:46:00.120Z,25.14
2023-04-30T14:48:27.045Z,24.27
2023-04-30T14:50:56.466Z,24.49
2023-04-30T14:53:25.272Z,24.64
2023-04-30T14:55:54.223Z,24.72
2023-04-30T14:58:21.167Z,24.80
2023-04-30T15:00:51.174Z,24.76
2023-04-30T15:03:17.859Z,24.63
2023-04-30T15:05:44.640Z,24.43
2023-04-30T15:08:11.707Z,24.36
2023-04-30T15:10:38.312Z,24.16
2023-04-30T15:13:07.877Z,23.93
2023-04-30T15:15:40.557Z,23.74
2023-04-30T15:18:07.378Z,23.57
2023-04-30T15:20:34.133Z,23.36
2023-04-30T15:23:03.943Z,23.18
2023-04-30T15:25:31.248Z,22.89
2023-04-30T15:27:58.404Z,22.69
2023-04-30T15:30:25.017Z,22.55
2023-04-30T15:32:51.612Z,22.37
2023-04-30T15:35:18.295Z,22.21
2023-04-30T15:37:47.187Z,22.13
2023-04-30T15:40:15.593Z,21.81
2023-04-30T15:42:42.716Z,21.55
2023-04-30T15:45:14.309Z,21.52
2023-04-30T15:47:41.276Z,21.41
2023-04-30T15:50:08.278Z,21.31
2023-04-30T15:52:39.920Z,21.31
2023-04-30T15:55:07.848Z,21.22
2023-04-30T15:57:34.432Z,21.21
2023-04-30T16:00:01.272Z,21.19
2023-04-30T16:02:40.852Z,21.04
2023-04-30T16:05:07.762Z,20.90
2023-04-30T16:07:34.472Z,20.82
2023-04-30T16:10:01.236Z,20.70
2023-04-30T16:12:28.040Z,20.66
2023-04-30T16:14:57.106Z,20.59
2023-04-30T16:17:29.193Z,20.44
2023-04-30T16:19:58.350Z,20.25
2023-04-30T16:22:25.250Z,20.16
2023-04-30T16:24:51.888Z,20.15
2023-04-30T16:27:18.685Z,20.11
2023-04-30T16:29:48.171Z,19.71
2023-04-30T16:32:14.871Z,19.56
2023-04-30T16:34:41.940Z,19.53
2023-04-30T16:37:09.132Z,19.54
2023-04-30T16:39:35.724Z,19.54
2023-04-30T16:42:04.705Z,19.56
2023-04-30T16:44:31.315Z,19.66
2023-04-30T16:47:02.782Z,19.73
2023-04-30T16:49:29.364Z,19.75
2023-04-30T16:51:56.008Z,19.72
2023-04-30T16:54:22.978Z,19.22
2023-04-30T16:56:49.566Z,18.70
2023-04-30T16:59:16.117Z,17.95
2023-04-30T17:01:42.892Z,17.28
2023-04-30T17:04:12.601Z,16.79
2023-04-30T17:06:42.816Z,16.53
2023-04-30T17:09:12.358Z,16.42
2023-04-30T17:11:38.976Z,16.37
2023-04-30T17:14:05.641Z,16.44
2023-04-30T17:16:37.417Z,16.62
2023-04-30T17:19:04.149Z,16.85
2023-04-30T17:21:33.198Z,17.05
2023-04-30T17:24:01.949Z,17.22
2023-04-30T17:26:28.556Z,17.30
2023-04-30T17:28:55.080Z,17.40
2023-04-30T17:31:21.666Z,17.49
2023-04-30T17:33:48.601Z,17.53
2023-04-30T17:36:18.030Z,17.50
2023-04-30T17:38:44.645Z,17.51
2023-04-30T17:41:13.559Z,17.52
2023-04-30T17:43:40.304Z,17.57
2023-04-30T17:46:09.828Z,17.60
2023-04-30T17:48:38.827Z,17.60
2023-04-30T17:51:08.016Z,17.55
2023-04-30T17:53:34.594Z,17.53
2023-04-30T17:56:01.256Z,17.49
2023-04-30T17:58:28.210Z,17.48
2023-04-30T18:00:58.956Z,17.52
2023-04-30T18:03:28.782Z,17.48
2023-04-30T18:05:55.912Z,17.52
2023-04-30T18:08:22.542Z,17.52
2023-04-30T18:10:49.634Z,17.44
2023-04-30T18:13:21.519Z,17.42
2023-04-30T18:15:48.243Z,17.36
2023-04-30T18:18:15.857Z,17.22
2023-04-30T18:20:44.877Z,17.22
2023-04-30T18:23:13.411Z,17.24
2023-04-30T18:25:43.644Z,17.17
2023-04-30T18:28:10.314Z,17.13
2023-04-30T18:30:37.030Z,17.06
2023-04-30T18:33:04.560Z,17.08
2023-04-30T18:35:34.204Z,17.09
2023-04-30T18:38:01.778Z,17.11
2023-04-30T18:40:28.476Z,17.15
2023-04-30T18:42:57.513Z,17.14
2023-04-30T18:45:24.217Z,17.14
2023-04-30T18:47:51.063Z,17.07
2023-04-30T18:50:20.676Z,17.04
2023-04-30T18:52:47.331Z,17.04
2023-04-30T18:55:18.733Z,17.03
2023-04-30T18:57:45.448Z,17.00
2023-04-30T19:00:14.131Z,16.92
2023-04-30T19:02:43.334Z,16.94
2023-04-30T19:05:15.724Z,16.91
2023-04-30T19:07:42.368Z,16.82
2023-04-30T19:10:09.094Z,16.67
2023-04-30T19:12:35.828Z,16.59
2023-04-30T19:15:02.583Z,16.46
2023-04-30T19:17:29.257Z,16.48
2023-04-30T19:20:00.148Z,16.49
2023-04-30T19:22:26.847Z,16.42
2023-04-30T19:24:53.417Z,16.38
2023-04-30T19:27:20.215Z,16.33
2023-04-30T19:29:46.815Z,16.30
2023-04-30T19:32:15.924Z,16.13
2023-04-30T19:34:44.899Z,16.13
2023-04-30T19:37:11.429Z,16.11
2023-04-30T19:39:40.362Z,16.11
2023-04-30T19:42:09.822Z,16.12
2023-04-30T19:44:36.607Z,16.16
2023-04-30T19:47:04.199Z,16.19
2023-04-30T19:49:31.179Z,16.18
2023-04-30T19:51:58.330Z,16.04
2023-04-30T19:54:25.231Z,16.03
2023-04-30T19:56:52.948Z,16.03
2023-04-30T19:59:22.114Z,16.08
2023-04-30T20:01:48.949Z,16.12
2023-04-30T20:04:17.884Z,16.07
2023-04-30T20:06:44.976Z,16.02
2023-04-30T20:09:11.836Z,16.02
2023-04-30T20:11:38.627Z,16.04
2023-04-30T20:14:05.560Z,16.00
2023-04-30T20:16:35.061Z,15.93
2023-04-30T20:19:01.782Z,15.91
2023-04-30T20:21:31.916Z,15.91
2023-04-30T20:24:00.256Z,15.88
2023-04-30T20:26:29.294Z,15.92
2023-04-30T20:28:56.426Z,15.92
2023-04-30T20:31:23.003Z,15.90
2023-04-30T20:33:52.307Z,15.86
2023-04-30T20:36:21.553Z,15.87
2023-04-30T20:38:48.684Z,15.82
2023-04-30T20:41:15.341Z,15.79
2023-04-30T20:43:42.020Z,15.74
2023-04-30T20:46:08.734Z,15.66
2023-04-30T20:48:35.997Z,15.60
2023-04-30T20:51:02.518Z,15.54
2023-04-30T20:53:29.371Z,15.50
2023-04-30T20:56:00.132Z,15.50
2023-04-30T20:58:29.886Z,15.52
2023-04-30T21:01:04.052Z,15.49
2023-04-30T21:03:33.264Z,15.48
2023-04-30T21:06:05.270Z,15.44
2023-04-30T21:08:31.941Z,15.39
2023-04-30T21:11:04.488Z,15.30
2023-04-30T21:13:33.613Z,15.24
2023-04-30T21:16:00.187Z,15.25
2023-04-30T21:18:27.707Z,15.19
2023-04-30T21:20:56.367Z,15.16
2023-04-30T21:23:23.085Z,14.98
2023-04-30T21:25:49.724Z,14.76
2023-04-30T21:28:18.654Z,14.63
2023-04-30T21:30:45.266Z,14.65
2023-04-30T21:33:11.904Z,14.65
2023-04-30T21:35:40.736Z,14.64
2023-04-30T21:38:12.632Z,14.47
2023-04-30T21:40:42.587Z,14.35
2023-04-30T21:43:11.612Z,14.38
2023-04-30T21:45:38.160Z,14.44
2023-04-30T21:48:05.523Z,14.46
2023-04-30T21:50:32.800Z,14.45
2023-04-30T21:52:59.411Z,14.56
2023-04-30T21:55:26.823Z,14.64
2023-04-30T21:57:55.936Z,14.66
2023-04-30T22:00:22.639Z,14.66
2023-04-30T22:02:51.654Z,14.48
2023-04-30T22:05:19.657Z,14.49
2023-04-30T22:07:48.682Z,14.48
2023-04-30T22:10:15.653Z,14.44
2023-04-30T22:12:43.903Z,14.35
2023-04-30T22:15:13.252Z,14.37
2023-04-30T22:17:42.451Z,14.44
2023-04-30T22:20:10.086Z,14.37
2023-04-30T22:22:37.057Z,14.44
2023-04-30T22:25:04.592Z,14.50
2023-04-30T22:27:34.252Z,14.57
2023-04-30T22:30:00.915Z,14.65
2023-04-30T22:32:27.803Z,14.66
2023-04-30T22:34:56.851Z,14.58
2023-04-30T22:37:26.411Z,14.59
2023-04-30T22:39:53.176Z,14.51
2023-04-30T22:42:19.836Z,14.43
2023-04-30T22:44:48.894Z,14.39
2023-04-30T22:47:15.751Z,14.33
2023-04-30T22:49:44.810Z,14.35
2023-04-30T22:52:11.706Z,14.30
2023-04-30T22:54:38.273Z,14.21
2023-04-30T22:57:09.754Z,14.17
2023-04-30T22:59:39.462Z,14.19
2023-04-30T23:02:06.111Z,14.16
2023-04-30T23:04:36.707Z,14.11
2023-04-30T23:07:03.466Z,14.10
2023-04-30T23:09:32.957Z,14.05
2023-04-30T23:12:05.690Z,14.01
2023-04-30T23:14:32.290Z,13.96
2023-04-30T23:16:58.976Z,13.99
2023-04-30T23:19:27.715Z,13.95
2023-04-30T23:21:54.341Z,13.91
2023-04-30T23:24:23.213Z,13.95
2023-04-30T23:26:50.058Z,13.91
2023-04-30T23:29:17.148Z,13.84
2023-04-30T23:31:46.343Z,13.91
2023-04-30T23:34:12.958Z,13.96
2023-04-30T23:36:40.150Z,13.91
2023-04-30T23:39:06.732Z,13.87
2023-04-30T23:41:36.233Z,13.84
2023-04-30T23:44:02.779Z,13.85
2023-04-30T23:46:29.539Z,13.88
2023-04-30T23:48:56.298Z,13.88
2023-04-30T23:51:22.930Z,13.88
2023-04-30T23:53:49.819Z,13.91
2023-04-30T23:56:17.215Z,13.86
2023-04-30T23:58:46.374Z,13.82
